createdAt,value
2018-05-15T00:02:07.094Z,77.50
2018-05-15T00:04:33.180Z,77.50
2018-05-15T00:07:00.005Z,76.60
2018-05-15T00:09:26.084Z,76.70
2018-05-15T00:11:52.922Z,76.00
2018-05-15T00:14:19.750Z,75.80
2018-05-15T00:16:46.586Z,75.80
2018-05-15T00:19:12.662Z,75.70
2018-05-15T00:21:38.754Z,75.90
2018-05-15T00:24:05.582Z,77.20
2018-05-15T00:26:31.739Z,77.10
2018-05-15T00:28:57.760Z,77.10
2018-05-15T00:31:23.855Z,77.50
2018-05-15T00:33:49.942Z,77.90
2018-05-15T00:36:16.038Z,78.00
2018-05-15T00:38:42.130Z,78.10
2018-05-15T00:41:08.213Z,78.10
2018-05-15T00:43:35.279Z,78.20
2018-05-15T00:46:01.377Z,77.70
2018-05-15T00:48:27.472Z,77.30
2018-05-15T00:50:54.296Z,77.00
2018-05-15T00:53:20.391Z,77.00
2018-05-15T00:55:46.493Z,77.50
2018-05-15T00:58:12.618Z,77.70
2018-05-15T01:00:38.706Z,78.10
2018-05-15T01:03:04.819Z,78.20
2018-05-15T01:05:30.918Z,78.30
2018-05-15T01:07:57.020Z,78.30
2018-05-15T01:10:23.109Z,78.30
2018-05-15T01:12:49.219Z,78.30
2018-05-15T01:15:15.322Z,78.40
2018-05-15T01:17:41.428Z,79.00
2018-05-15T01:20:07.533Z,79.20
2018-05-15T01:22:34.388Z,80.00
2018-05-15T01:25:00.477Z,80.70
2018-05-15T01:27:26.578Z,80.10
2018-05-15T01:29:52.661Z,80.70
2018-05-15T01:32:18.770Z,81.00
2018-05-15T01:34:45.614Z,81.70
2018-05-15T01:37:12.461Z,82.10
2018-05-15T01:39:39.301Z,82.40
2018-05-15T01:42:06.150Z,82.20
2018-05-15T01:44:32.988Z,82.50
2018-05-15T01:46:59.829Z,82.30
2018-05-15T01:49:26.677Z,82.20
2018-05-15T01:51:53.517Z,81.90
2018-05-15T01:54:20.357Z,81.20
2018-05-15T01:56:48.631Z,80.80
2018-05-15T01:59:14.713Z,80.70
2018-05-15T02:01:40.803Z,80.70
2018-05-15T02:04:06.898Z,80.70
2018-05-15T02:06:32.986Z,80.90
2018-05-15T02:08:59.086Z,81.40
2018-05-15T02:11:25.173Z,81.70
2018-05-15T02:13:51.263Z,82.00
2018-05-15T02:16:17.352Z,82.60
2018-05-15T02:18:44.172Z,84.20
2018-05-15T02:21:10.276Z,84.20
2018-05-15T02:23:37.105Z,84.10
2018-05-15T02:26:03.190Z,84.60
2018-05-15T02:28:30.017Z,83.70
2018-05-15T02:30:56.837Z,83.90
2018-05-15T02:33:22.917Z,83.80
2018-05-15T02:35:48.997Z,84.10
2018-05-15T02:38:15.085Z,84.50
2018-05-15T02:40:41.165Z,84.90
2018-05-15T02:43:08.801Z,85.20
2018-05-15T02:45:34.890Z,85.10
2018-05-15T02:48:00.968Z,84.90
2018-05-15T02:50:27.045Z,84.90
2018-05-15T02:52:53.125Z,84.80
2018-05-15T02:55:19.984Z,85.20
2018-05-15T02:57:46.087Z,85.20
2018-05-15T03:00:12.184Z,85.20
2018-05-15T03:02:38.273Z,85.40
2018-05-15T03:05:04.364Z,85.50
2018-05-15T03:07:30.469Z,85.80
2018-05-15T03:09:56.583Z,86.00
2018-05-15T03:12:22.683Z,86.00
2018-05-15T03:14:48.794Z,86.20
2018-05-15T03:17:14.898Z,86.60
2018-05-15T03:19:41.791Z,87.70
2018-05-15T03:22:07.894Z,87.30
2018-05-15T03:24:34.000Z,87.60
2018-05-15T03:27:00.833Z,87.40
2018-05-15T03:29:26.931Z,87.30
2018-05-15T03:31:53.030Z,87.20
2018-05-15T03:34:22.070Z,87.10
2018-05-15T03:36:48.165Z,87.00
2018-05-15T03:39:14.271Z,86.80
2018-05-15T03:41:40.362Z,86.90
2018-05-15T03:44:07.213Z,87.50
2018-05-15T03:46:34.061Z,87.40
2018-05-15T03:49:00.897Z,87.50
2018-05-15T03:51:27.745Z,87.70
2018-05-15T03:53:54.582Z,87.40
2018-05-15T03:56:21.431Z,87.20
2018-05-15T03:58:48.253Z,87.10
2018-05-15T04:01:33.124Z,87.00
2018-05-15T04:04:17.849Z,87.30
2018-05-15T04:07:03.165Z,87.60
2018-05-15T04:09:29.249Z,87.90
2018-05-15T04:11:55.336Z,88.00
2018-05-15T04:14:22.193Z,87.80
2018-05-15T04:16:48.273Z,87.50
2018-05-15T04:19:14.358Z,87.30
2018-05-15T04:21:40.440Z,87.20
2018-05-15T04:24:06.512Z,87.30
2018-05-15T04:26:32.606Z,87.60
2018-05-15T04:28:59.425Z,87.60
2018-05-15T04:31:25.510Z,87.60
2018-05-15T04:33:51.592Z,87.40
2018-05-15T04:36:18.417Z,86.30
2018-05-15T04:38:44.511Z,86.30
2018-05-15T04:41:10.596Z,85.80
2018-05-15T04:43:36.792Z,85.20
2018-05-15T04:46:02.769Z,84.80
2018-05-15T04:48:28.842Z,84.40
2018-05-15T04:50:54.926Z,84.10
2018-05-15T04:53:21.005Z,83.70
2018-05-15T04:55:47.858Z,83.20
2018-05-15T04:58:14.711Z,83.00
2018-05-15T05:00:40.803Z,83.00
2018-05-15T05:03:08.235Z,82.50
2018-05-15T05:05:34.335Z,82.20
2018-05-15T05:08:00.425Z,81.70
2018-05-15T05:10:27.262Z,80.20
2018-05-15T05:12:53.360Z,80.10
2018-05-15T05:15:19.452Z,79.80
2018-05-15T05:17:45.552Z,78.30
2018-05-15T05:20:12.394Z,72.60
2018-05-15T05:22:40.237Z,70.50
2018-05-15T05:25:06.317Z,70.40
2018-05-15T05:27:32.413Z,70.00
2018-05-15T05:29:58.518Z,70.30
2018-05-15T05:32:24.618Z,70.70
2018-05-15T05:34:50.709Z,70.60
2018-05-15T05:37:16.814Z,70.50
2018-05-15T05:39:43.658Z,70.10
2018-05-15T05:42:10.510Z,70.30
2018-05-15T05:44:37.336Z,69.70
2018-05-15T05:47:03.421Z,69.60
2018-05-15T05:49:29.515Z,69.20
2018-05-15T05:51:55.671Z,69.20
2018-05-15T05:54:21.742Z,69.70
2018-05-15T05:56:48.593Z,69.60
2018-05-15T05:59:15.434Z,67.90
2018-05-15T06:01:42.322Z,67.10
2018-05-15T06:04:08.424Z,67.00
2018-05-15T06:06:34.514Z,66.10
2018-05-15T06:09:00.618Z,62.30
2018-05-15T06:11:26.719Z,56.10
2018-05-15T06:13:52.863Z,51.80
2018-05-15T06:16:18.962Z,48.50
2018-05-15T06:18:45.064Z,46.60
2018-05-15T06:21:11.896Z,42.50
2018-05-15T06:23:38.733Z,41.40
2018-05-15T06:26:04.827Z,41.40
2018-05-15T06:28:30.931Z,40.80
2018-05-15T06:30:57.036Z,42.10
2018-05-15T06:33:23.140Z,41.60
2018-05-15T06:35:49.973Z,40.40
2018-05-15T06:38:16.066Z,40.30
2018-05-15T06:40:42.159Z,41.20
2018-05-15T06:43:08.257Z,40.00
2018-05-15T06:45:34.351Z,39.20
2018-05-15T06:48:00.456Z,38.30
2018-05-15T06:50:26.557Z,37.10
2018-05-15T06:52:52.659Z,35.60
2018-05-15T06:55:18.779Z,35.50
2018-05-15T06:57:44.882Z,35.60
2018-05-15T07:00:10.999Z,35.30
2018-05-15T07:02:37.106Z,34.40
2018-05-15T07:05:03.196Z,33.60
2018-05-15T07:07:30.033Z,33.10
2018-05-15T07:09:56.135Z,33.10
2018-05-15T07:12:22.233Z,32.60
2018-05-15T07:14:48.341Z,32.70
2018-05-15T07:17:14.438Z,32.80
2018-05-15T07:19:40.547Z,32.90
2018-05-15T07:22:06.650Z,32.70
2018-05-15T07:24:32.760Z,32.70
2018-05-15T07:26:58.858Z,33.00
2018-05-15T07:29:25.706Z,33.10
2018-05-15T07:31:51.802Z,33.10
2018-05-15T07:34:17.906Z,33.30
2018-05-15T07:36:44.027Z,33.40
2018-05-15T07:39:10.137Z,34.20
2018-05-15T07:41:36.222Z,34.40
2018-05-15T07:44:03.057Z,36.30
2018-05-15T07:46:29.141Z,36.30
2018-05-15T07:48:55.236Z,37.30
2018-05-15T07:51:21.341Z,38.20
2018-05-15T07:53:48.189Z,39.20
2018-05-15T07:56:15.058Z,39.60
2018-05-15T07:58:41.154Z,39.60
2018-05-15T08:01:07.988Z,39.80
2018-05-15T08:03:34.081Z,39.80
2018-05-15T08:06:00.176Z,39.50
2018-05-15T08:08:26.269Z,39.70
2018-05-15T08:10:52.948Z,39.90
2018-05-15T08:13:19.067Z,39.70
2018-05-15T08:15:45.181Z,40.80
2018-05-15T08:18:11.269Z,41.00
2018-05-15T08:20:37.395Z,41.20
2018-05-15T08:23:03.493Z,41.30
2018-05-15T08:25:29.605Z,41.50
2018-05-15T08:27:55.712Z,41.00
2018-05-15T08:30:21.817Z,40.30
2018-05-15T08:32:48.650Z,39.40
2018-05-15T08:35:14.754Z,39.40
2018-05-15T08:37:40.906Z,38.90
2018-05-15T08:40:06.991Z,38.40
2018-05-15T08:42:33.098Z,38.80
2018-05-15T08:44:59.205Z,38.90
2018-05-15T08:47:26.042Z,38.70
2018-05-15T08:49:52.162Z,38.60
2018-05-15T08:52:19.000Z,39.30
2018-05-15T08:54:45.090Z,39.30
2018-05-15T08:57:11.192Z,39.20
2018-05-15T08:59:37.272Z,39.00
2018-05-15T09:02:03.345Z,38.40
2018-05-15T09:04:29.442Z,38.10
2018-05-15T09:06:55.537Z,37.20
2018-05-15T09:09:21.628Z,36.10
2018-05-15T09:11:47.721Z,35.60
2018-05-15T09:14:14.536Z,36.50
2018-05-15T09:16:40.626Z,36.50
2018-05-15T09:19:06.772Z,37.50
2018-05-15T09:21:32.854Z,37.40
2018-05-15T09:23:58.933Z,37.40
2018-05-15T09:26:25.031Z,36.20
2018-05-15T09:28:51.113Z,34.90
2018-05-15T09:31:17.940Z,33.80
2018-05-15T09:33:44.017Z,33.80
2018-05-15T09:36:10.109Z,32.60
2018-05-15T09:38:36.933Z,32.30
2018-05-15T09:41:03.016Z,32.30
2018-05-15T09:46:32.848Z,34.00
2018-05-15T09:48:58.938Z,35.40
2018-05-15T09:51:25.765Z,37.20
2018-05-15T09:53:51.851Z,37.20
2018-05-15T09:56:17.962Z,38.50
2018-05-15T09:58:44.040Z,39.70
2018-05-15T10:01:10.126Z,41.20
2018-05-15T10:03:36.233Z,42.60
2018-05-15T10:06:02.317Z,44.10
2018-05-15T10:08:28.414Z,45.40
2018-05-15T10:11:05.993Z,47.70
2018-05-15T10:13:32.076Z,50.40
2018-05-15T10:15:58.897Z,56.00
2018-05-15T10:18:24.976Z,56.00
2018-05-15T10:20:51.057Z,58.10
2018-05-15T10:23:17.149Z,60.10
2018-05-15T10:25:43.238Z,62.00
2018-05-15T10:28:09.341Z,63.50
2018-05-15T10:30:36.165Z,65.00
2018-05-15T10:33:02.261Z,65.00
2018-05-15T10:35:28.349Z,64.80
2018-05-15T10:37:54.441Z,65.50
2018-05-15T10:40:20.522Z,65.80
2018-05-15T10:42:46.620Z,64.90
2018-05-15T10:45:12.701Z,62.10
2018-05-15T10:47:38.786Z,62.30
2018-05-15T10:50:04.886Z,61.80
2018-05-15T10:52:31.723Z,61.00
2018-05-15T10:54:58.553Z,62.40
2018-05-15T10:57:24.645Z,62.50
2018-05-15T10:59:50.725Z,64.50
2018-05-15T11:02:17.581Z,64.50
2018-05-15T11:04:44.410Z,63.30
2018-05-15T11:07:11.247Z,63.40
2018-05-15T11:09:38.073Z,63.60
2018-05-15T11:12:04.153Z,63.60
2018-05-15T11:14:30.236Z,63.40
2018-05-15T11:16:56.317Z,64.30
2018-05-15T11:19:41.223Z,65.60
2018-05-15T11:22:25.959Z,66.60
2018-05-15T11:24:52.048Z,68.70
2018-05-15T11:27:18.123Z,69.00
2018-05-15T11:29:44.212Z,69.70
2018-05-15T11:32:10.285Z,70.50
2018-05-15T11:34:36.374Z,70.70
2018-05-15T11:37:02.445Z,70.70
2018-05-15T11:39:29.273Z,71.60
2018-05-15T11:41:55.393Z,71.50
2018-05-15T11:44:22.217Z,72.60
2018-05-15T11:46:48.318Z,72.60
2018-05-15T11:49:14.942Z,73.30
2018-05-15T11:51:40.915Z,73.80
2018-05-15T11:54:08.055Z,74.70
2018-05-15T11:56:34.201Z,74.60
2018-05-15T11:59:00.268Z,75.20
2018-05-15T12:01:26.345Z,75.10
2018-05-15T12:03:52.522Z,75.40
2018-05-15T12:06:18.593Z,75.30
2018-05-15T12:08:45.365Z,76.20
2018-05-15T12:11:11.449Z,76.20
2018-05-15T12:13:37.556Z,76.20
2018-05-15T12:16:03.706Z,74.30
2018-05-15T12:18:30.556Z,71.40
2018-05-15T12:20:56.560Z,71.40
2018-05-15T12:23:22.642Z,70.40
2018-05-15T12:25:49.465Z,67.00
2018-05-15T12:28:15.554Z,67.00
2018-05-15T12:30:41.672Z,67.20
2018-05-15T12:33:07.766Z,68.20
2018-05-15T12:35:34.593Z,67.30
2018-05-15T12:38:01.303Z,67.40
2018-05-15T12:40:27.393Z,67.10
2018-05-15T12:42:53.485Z,67.70
2018-05-15T12:45:19.586Z,69.10
2018-05-15T12:47:45.702Z,69.60
2018-05-15T12:50:11.781Z,69.70
2018-05-15T12:52:38.601Z,70.30
2018-05-15T12:55:04.699Z,70.30
2018-05-15T12:57:30.785Z,70.40
2018-05-15T12:59:56.953Z,70.70
2018-05-15T13:02:23.034Z,71.10
2018-05-15T13:04:49.751Z,71.00
2018-05-15T13:07:15.843Z,70.60
2018-05-15T13:09:49.946Z,70.50
2018-05-15T13:12:16.055Z,69.50
2018-05-15T13:14:42.195Z,69.60
2018-05-15T13:17:08.285Z,69.40
2018-05-15T13:19:35.125Z,68.60
2018-05-15T13:22:01.970Z,68.40
2018-05-15T13:24:28.816Z,68.20
2018-05-15T13:26:55.740Z,68.20
2018-05-15T13:29:21.821Z,68.20
2018-05-15T13:31:47.922Z,68.20
2018-05-15T13:34:14.001Z,68.30
2018-05-15T13:36:40.094Z,68.40
2018-05-15T13:39:06.183Z,68.60
2018-05-15T13:41:33.018Z,68.70
2018-05-15T13:43:59.851Z,68.70
2018-05-15T13:46:25.954Z,68.70
2018-05-15T13:48:52.025Z,68.70
2018-05-15T13:51:18.127Z,69.20
2018-05-15T13:53:44.204Z,69.30
2018-05-15T13:56:10.291Z,69.50
2018-05-15T13:58:37.109Z,68.60
2018-05-15T14:01:03.215Z,68.60
2018-05-15T14:03:29.314Z,68.30
2018-05-15T14:05:55.408Z,68.50
2018-05-15T14:08:22.232Z,70.20
2018-05-15T14:10:48.319Z,70.10
2018-05-15T14:13:14.416Z,70.80
2018-05-15T14:15:40.493Z,70.40
2018-05-15T14:18:06.578Z,70.60
2018-05-15T14:20:32.657Z,71.10
2018-05-15T14:22:58.746Z,71.60
2018-05-15T14:25:24.902Z,72.10
2018-05-15T14:27:51.672Z,73.40
2018-05-15T14:30:18.512Z,73.30
2018-05-15T14:32:45.346Z,73.90
2018-05-15T14:35:12.285Z,73.90
2018-05-15T14:37:38.393Z,74.20
2018-05-15T14:40:04.473Z,74.60
2018-05-15T14:42:49.397Z,74.50
2018-05-15T14:45:26.046Z,74.00
2018-05-15T14:47:52.181Z,73.40
2018-05-15T14:50:18.266Z,73.20
2018-05-15T14:52:44.370Z,73.30
2018-05-15T14:55:11.207Z,73.00
2018-05-15T14:57:37.302Z,73.00
2018-05-15T15:03:04.126Z,73.60
2018-05-15T15:05:30.210Z,75.40
2018-05-15T15:07:56.354Z,77.40
2018-05-15T15:10:23.185Z,80.30
2018-05-15T15:12:49.274Z,80.20
2018-05-15T15:15:15.357Z,81.20
2018-05-15T15:17:42.197Z,82.70
2018-05-15T15:20:09.025Z,83.30
2018-05-15T15:22:35.107Z,83.30
2018-05-15T15:25:01.210Z,84.10
2018-05-15T15:27:27.289Z,85.00
2018-05-15T15:29:53.374Z,85.40
2018-05-15T15:32:19.458Z,85.80
2018-05-15T15:34:45.545Z,86.40
2018-05-15T15:37:11.617Z,87.00
2018-05-15T15:39:38.450Z,88.00
2018-05-15T15:42:04.529Z,88.00
2018-05-15T15:44:30.630Z,88.50
2018-05-15T15:46:56.719Z,89.00
2018-05-15T15:49:22.811Z,89.40
2018-05-15T15:51:48.885Z,89.90
2018-05-15T15:54:15.721Z,90.60
2018-05-15T15:56:41.805Z,90.60
2018-05-15T15:59:07.899Z,90.90
2018-05-15T16:01:33.969Z,90.60
2018-05-15T16:04:00.141Z,88.80
2018-05-15T16:06:26.181Z,87.10
2018-05-15T16:08:52.270Z,85.30
2018-05-15T16:11:18.349Z,84.50
2018-05-15T16:13:44.441Z,84.50
2018-05-15T16:16:11.269Z,85.70
2018-05-15T16:18:38.909Z,85.70
2018-05-15T16:21:05.008Z,86.00
2018-05-15T16:23:31.093Z,85.40
2018-05-15T16:25:57.928Z,84.50
2018-05-15T16:28:24.015Z,84.50
2018-05-15T16:30:50.100Z,85.10
2018-05-15T16:33:16.931Z,84.80
2018-05-15T16:35:43.773Z,85.20
2018-05-15T16:38:10.597Z,85.50
2018-05-15T16:40:36.679Z,85.50
2018-05-15T16:43:02.765Z,85.40
2018-05-15T16:45:29.611Z,85.20
2018-05-15T16:47:56.434Z,85.50
2018-05-15T16:50:22.530Z,85.40
2018-05-15T16:52:48.609Z,85.90
2018-05-15T16:55:15.461Z,87.10
2018-05-15T16:57:41.557Z,87.00
2018-05-15T17:00:07.642Z,87.60
2018-05-15T17:02:33.721Z,87.90
2018-05-15T17:05:00.554Z,88.50
2018-05-15T17:07:26.639Z,88.50
2018-05-15T17:09:52.738Z,88.70
2018-05-15T17:12:18.821Z,89.10
2018-05-15T17:14:44.928Z,89.40
2018-05-15T17:17:11.017Z,89.70
2018-05-15T17:19:37.100Z,90.00
2018-05-15T17:22:03.177Z,90.10
2018-05-15T17:24:29.260Z,90.20
2018-05-15T17:26:55.983Z,90.30
2018-05-15T17:29:22.071Z,90.40
2018-05-15T17:31:48.157Z,90.50
2018-05-15T17:34:14.978Z,90.80
2018-05-15T17:36:41.080Z,90.80
2018-05-15T17:39:07.161Z,90.90
2018-05-15T17:41:33.990Z,91.00
2018-05-15T17:44:00.819Z,91.00
2018-05-15T17:46:26.917Z,91.00
2018-05-15T17:48:53.745Z,91.10
2018-05-15T17:51:19.833Z,91.10
2018-05-15T17:53:46.658Z,91.40
2018-05-15T17:56:12.771Z,91.40
2018-05-15T17:58:38.870Z,91.50
2018-05-15T18:01:04.997Z,91.60
2018-05-15T18:03:31.093Z,91.80
2018-05-15T18:05:57.180Z,91.90
2018-05-15T18:08:24.280Z,92.10
2018-05-15T18:10:51.111Z,92.50
2018-05-15T18:13:17.232Z,92.50
2018-05-15T18:15:46.966Z,92.70
2018-05-15T18:18:13.057Z,92.80
2018-05-15T18:20:39.924Z,93.10
2018-05-15T18:23:06.046Z,93.00
2018-05-15T18:25:32.153Z,93.10
2018-05-15T18:27:58.999Z,93.30
2018-05-15T18:30:25.854Z,93.20
2018-05-15T18:32:52.050Z,93.20
2018-05-15T18:35:51.244Z,93.30
2018-05-15T18:38:36.118Z,93.30
2018-05-15T18:41:02.222Z,93.40
2018-05-15T18:43:28.405Z,93.40
2018-05-15T18:45:55.236Z,93.40
2018-05-15T18:48:22.069Z,93.50
2018-05-15T18:50:48.175Z,93.50
2018-05-15T18:53:14.274Z,93.50
2018-05-15T18:55:40.381Z,93.30
2018-05-15T18:58:06.494Z,93.60
2018-05-15T19:00:33.330Z,93.90
2018-05-15T19:03:00.172Z,93.90
2018-05-15T19:05:27.018Z,94.00
2018-05-15T19:07:53.858Z,94.00
2018-05-15T19:10:20.715Z,94.00
2018-05-15T19:12:46.812Z,94.00
2018-05-15T19:15:12.914Z,94.00
2018-05-15T19:17:42.474Z,94.00
2018-05-15T19:20:08.594Z,94.00
2018-05-15T19:22:35.429Z,93.90
2018-05-15T19:25:02.281Z,93.80
2018-05-15T19:27:28.378Z,93.80
2018-05-15T19:29:54.479Z,93.70
2018-05-15T19:32:26.829Z,93.50
2018-05-15T19:34:54.725Z,93.40
2018-05-15T19:37:20.827Z,93.30
2018-05-15T19:39:46.926Z,93.40
2018-05-15T19:42:13.021Z,93.50
2018-05-15T19:44:39.163Z,93.50
2018-05-15T19:47:05.233Z,93.50
2018-05-15T19:49:31.329Z,93.60
2018-05-15T19:51:57.440Z,93.60
2018-05-15T19:54:24.286Z,93.80
2018-05-15T19:56:51.126Z,93.80
2018-05-15T19:59:17.978Z,93.90
2018-05-15T20:01:44.838Z,93.90
2018-05-15T20:04:11.670Z,93.90
2018-05-15T20:06:38.494Z,93.80
2018-05-15T20:09:05.372Z,94.00
2018-05-15T20:11:32.193Z,93.70
2018-05-15T20:13:59.033Z,93.60
2018-05-15T20:16:25.870Z,93.60
2018-05-15T20:18:52.798Z,93.70
2018-05-15T20:21:19.598Z,93.60
2018-05-15T20:23:45.798Z,93.60
2018-05-15T20:26:44.543Z,93.70
2018-05-15T20:29:10.660Z,93.60
2018-05-15T20:31:36.757Z,93.80
2018-05-15T20:34:02.845Z,93.90
2018-05-15T20:36:28.932Z,93.90
2018-05-15T20:38:55.028Z,94.30
2018-05-15T20:41:21.105Z,94.10
2018-05-15T20:43:47.194Z,94.20
2018-05-15T20:46:13.278Z,94.20
2018-05-15T20:48:39.376Z,94.30
2018-05-15T20:51:05.466Z,94.40
2018-05-15T20:53:31.561Z,94.50
2018-05-15T20:55:58.406Z,94.60
2018-05-15T20:58:25.254Z,94.80
2018-05-15T21:00:52.771Z,94.90
2018-05-15T21:12:32.970Z,95.10
2018-05-15T21:14:59.130Z,95.10
2018-05-15T21:17:46.077Z,95.50
2018-05-15T21:23:21.283Z,95.50
2018-05-15T21:25:47.486Z,95.60
2018-05-15T21:31:36.464Z,95.40
2018-05-15T21:34:02.558Z,95.40
2018-05-15T21:36:29.410Z,95.30
2018-05-15T21:41:58.450Z,95.30
2018-05-15T21:44:24.561Z,95.40
2018-05-15T21:46:51.400Z,95.50
2018-05-15T21:49:18.238Z,95.60
2018-05-15T21:51:45.082Z,95.80
2018-05-15T21:54:11.925Z,95.80
2018-05-15T21:56:50.899Z,95.80
2018-05-15T21:59:16.990Z,95.80
2018-05-15T22:01:54.001Z,95.80
2018-05-15T22:04:32.586Z,95.90
2018-05-15T22:07:31.217Z,96.20
2018-05-15T22:16:18.906Z,96.50
2018-05-15T22:19:03.754Z,96.50
2018-05-15T22:21:48.569Z,96.80
2018-05-15T22:24:22.335Z,96.60
2018-05-15T22:26:48.430Z,96.60
2018-05-15T22:29:14.516Z,96.60
2018-05-15T22:31:40.607Z,96.70
2018-05-15T22:34:06.693Z,96.70
2018-05-15T22:36:32.786Z,96.70
2018-05-15T22:38:58.874Z,96.70
2018-05-15T22:41:24.981Z,96.60
2018-05-15T22:43:51.068Z,96.60
2018-05-15T22:46:17.754Z,96.60
2018-05-15T22:48:43.839Z,96.80
2018-05-15T22:51:09.924Z,96.80
2018-05-15T22:53:36.017Z,96.80
2018-05-15T22:56:03.497Z,96.80
2018-05-15T22:58:29.603Z,96.80
2018-05-15T23:00:55.702Z,96.70
2018-05-15T23:03:22.529Z,96.50
2018-05-15T23:05:48.623Z,96.50
2018-05-15T23:08:16.170Z,96.40
2018-05-15T23:10:42.311Z,96.40
2018-05-15T23:13:09.153Z,96.30
2018-05-15T23:15:35.253Z,96.30
2018-05-15T23:18:01.381Z,96.30
2018-05-15T23:20:27.487Z,96.30
2018-05-15T23:22:54.335Z,96.30
2018-05-15T23:25:20.421Z,96.30
2018-05-15T23:27:46.509Z,96.40
2018-05-15T23:30:12.613Z,96.50
2018-05-15T23:32:38.742Z,96.50
2018-05-15T23:35:04.840Z,96.50
2018-05-15T23:37:30.933Z,96.60
2018-05-15T23:39:57.776Z,96.90
2018-05-15T23:42:23.886Z,96.90
2018-05-15T23:44:49.984Z,97.10
2018-05-15T23:47:16.860Z,97.30
2018-05-15T23:49:42.953Z,97.30
2018-05-15T23:52:09.066Z,97.30
2018-05-15T23:54:35.905Z,97.40
2018-05-15T23:57:02.752Z,97.40
2018-05-15T23:59:29.589Z,97.50
